Terminal Aerodrome Forecast
Issued by NWS

Home | Current Version | Previous Version | Text Only | Print | Product List | Glossary On
Versions: 1 2 3 4 5 6 7 8 9 10 11 12 13 14 15 16 17 18 19
825
FTUS43 KABR 231120
TAFMBG
TAF
KMBG 231120Z 2312/2412 14007KT P6SM VCSH FEW080 BKN110
     FM231400 14008KT P6SM OVC130
     FM231900 08008KT P6SM BKN070
     FM232100 03010KT P6SM BKN040
     FM232200 03011KT P6SM BKN025
     FM240000 01011KT P6SM OVC035=

USA.gov is the U.S. government's official web portal to all federal, state and local government web resources and services.